キッズの男気!!!!!

LUXURY FLIGHT

03-6423-7371

羽田本店:東京都大田区羽田5-11-1
営業時間:10:00~20:00
定休日:毎週 月曜日
セントレア店:愛知県常滑市セントレア1-1
営業時間:10:00~20:00 年中無休

lv

キッズの男気!!!!!

STAFF BLOG

2019/06/06 キッズの男気!!!!!

おはざっすーーーーー

 

いやぁ、暑い

本当に暑い

 

そしてラグフラはもっと熱い

 

ほぼ夏の気温と、ご機嫌なお日様のサンサン度合いに、朝からガリガリ君食べてます

 

RJTT 060030Z 12006KT CAVOK 25/20 Q1011 NOSIG RMK A2986

 

 

 

さてさてさてさてーーー、

夏が近づいてきたので、ちょっぴり涼しい演出でお送りしまーす!!(笑)

本日のこちらのお客様、笑顔がとても素敵な、いかにも仲良しのご家族でございます。

※ここからは、ブログを読む声を、ホラー系のナレーション風に切り替えてお楽しみください。

 

 

 

…しかし、この記念写真をよく見ていただきたい。

 

楽しそうに微笑む子供と奥様との間に、まるで想像もできない恐怖が顔を出している…。

 

 

img_1611

 

 

 

 

 

 

 

 

ではもう一度…

 

 

 

 

 

 

 

 

 

img_1611

 

 

 

 

お分かりいただけただろうか。

 

幸せな家族を一瞬で恐怖に陥れる、あまりにも残酷な計器表示にスタッフは絶望し、冷や汗が止まらない。

この店舗の近くには穴守稲荷という神社があるという。

人間には想像もできない神様の力が働いた、…とでも、言うのだろうか?

 

 

 

 

…。(笑)

 

 

そんな訳ございまてーーーーーーーーーーーーん

 

スタッフがお子様とはしゃぎ過ぎて、設定画面を肘で触ってしまい計器が固まってしまいましたーーーーー

 

フライトの中盤から、

 

…ん?

 

…むむむ??

 

な感じで計器が不作動になりましたが、キッズキャプテンは必死に滑走路を見ながら目視だけで降ろしてくれました。

着陸直前、機体が不安定になったのはご愛嬌

 

だってジャンボの操縦は初めてだもんね

 

困難な状況下でもあきらめない男気!!!

本当は怖かったかもしれないけど、

そんなのを表情に出さずにスタッフの話を必死に聞きながら一生懸命に操縦できたこと。

 

間違いなくパイロットです!!!

 

  • こんな事はもうないと思うけど、次回パワーアップした姿でもっとカッコいいところをパパ&ママに見せてあげてねーーー

 

 

この度のご来店誠にありがとうございました。

次のご来店も心よりお待ちいたしております。

 

「感謝」

 

 

 

 

 

 

 

 

 

 

TOP